createdAt,value
2023-03-05T00:00:56.767Z,100.00
2023-03-05T00:04:01.055Z,100.00
2023-03-05T00:07:02.828Z,100.00
2023-03-05T00:10:09.147Z,100.00
2023-03-05T00:13:11.072Z,100.00
2023-03-05T00:16:13.482Z,100.00
2023-03-05T00:19:17.357Z,100.00
2023-03-05T00:22:19.196Z,100.00
2023-03-05T00:25:22.304Z,100.00
2023-03-05T00:28:24.038Z,100.00
2023-03-05T00:31:26.914Z,100.00
2023-03-05T00:34:29.745Z,100.00
2023-03-05T00:37:31.470Z,100.00
2023-03-05T00:40:36.979Z,100.00
2023-03-05T00:43:38.742Z,100.00
2023-03-05T00:46:40.625Z,100.00
2023-03-05T00:49:42.649Z,100.00
2023-03-05T00:52:44.825Z,100.00
2023-03-05T00:55:50.830Z,100.00
2023-03-05T00:58:54.756Z,100.00
2023-03-05T01:01:56.927Z,100.00
2023-03-05T01:04:58.783Z,100.00
2023-03-05T01:08:00.354Z,100.00
2023-03-05T01:11:03.885Z,100.00
2023-03-05T01:14:05.565Z,100.00
2023-03-05T01:17:07.812Z,100.00
2023-03-05T01:20:10.300Z,100.00
2023-03-05T01:23:12.173Z,100.00
2023-03-05T01:26:16.064Z,100.00
2023-03-05T01:29:17.634Z,100.00
2023-03-05T01:32:19.372Z,100.00
2023-03-05T01:35:22.194Z,100.00
2023-03-05T01:38:24.131Z,100.00
2023-03-05T01:41:26.957Z,100.00
2023-03-05T01:44:29.811Z,100.00
2023-03-05T01:47:31.494Z,100.00
2023-03-05T01:50:33.455Z,100.00
2023-03-05T01:53:35.091Z,100.00
2023-03-05T01:56:39.607Z,100.00
2023-03-05T01:59:43.093Z,100.00
2023-03-05T02:02:49.311Z,100.00
2023-03-05T02:05:50.998Z,100.00
2023-03-05T02:08:52.603Z,100.00
2023-03-05T02:11:56.312Z,100.00
2023-03-05T02:14:59.455Z,100.00
2023-03-05T02:18:03.984Z,100.00
2023-03-05T02:21:07.403Z,100.00
2023-03-05T02:24:11.918Z,100.00
2023-03-05T02:27:14.837Z,100.00
2023-03-05T02:30:16.382Z,100.00
2023-03-05T02:33:19.335Z,100.00
2023-03-05T02:36:23.098Z,100.00
2023-03-05T02:39:24.801Z,100.00
2023-03-05T02:42:26.548Z,100.00
2023-03-05T02:45:28.457Z,100.00
2023-03-05T02:48:30.161Z,100.00
2023-03-05T02:51:33.350Z,100.00
2023-03-05T02:54:35.149Z,100.00
2023-03-05T02:57:38.278Z,100.00
2023-03-05T03:00:39.971Z,100.00
2023-03-05T03:03:41.525Z,100.00
2023-03-05T03:06:45.661Z,100.00
2023-03-05T03:09:47.166Z,100.00
2023-03-05T03:12:48.703Z,100.00
2023-03-05T03:15:50.175Z,100.00
2023-03-05T03:18:51.809Z,100.00
2023-03-05T03:21:55.124Z,100.00
2023-03-05T03:24:56.736Z,100.00
2023-03-05T03:27:58.261Z,100.00
2023-03-05T03:31:00.033Z,100.00
2023-03-05T03:34:01.554Z,100.00
2023-03-05T03:37:04.430Z,100.00
2023-03-05T03:40:06.686Z,100.00
2023-03-05T03:43:08.403Z,100.00
2023-03-05T03:46:10.074Z,100.00
2023-03-05T03:49:14.516Z,100.00
2023-03-05T03:52:17.573Z,100.00
2023-03-05T03:55:19.141Z,100.00
2023-03-05T03:58:20.864Z,100.00
2023-03-05T04:01:22.443Z,100.00
2023-03-05T04:04:24.145Z,100.00
2023-03-05T04:07:27.422Z,100.00
2023-03-05T04:10:29.136Z,100.00
2023-03-05T04:13:30.947Z,100.00
2023-03-05T04:16:32.666Z,100.00
2023-03-05T04:19:34.240Z,100.00
2023-03-05T04:22:37.681Z,100.00
2023-03-05T04:25:39.305Z,100.00
2023-03-05T04:28:40.877Z,100.00
2023-03-05T04:31:42.615Z,100.00
2023-03-05T04:34:44.295Z,100.00
2023-03-05T04:37:47.368Z,100.00
2023-03-05T04:40:49.174Z,100.00
2023-03-05T04:43:50.882Z,100.00
2023-03-05T04:46:52.827Z,100.00
2023-03-05T04:49:54.417Z,100.00
2023-03-05T04:52:57.884Z,100.00
2023-03-05T04:56:01.733Z,100.00
2023-03-05T04:59:03.389Z,100.00
2023-03-05T05:02:05.446Z,100.00
2023-03-05T05:05:07.724Z,100.00
2023-03-05T05:08:11.048Z,100.00
2023-03-05T05:11:13.574Z,100.00
2023-03-05T05:14:15.486Z,100.00
2023-03-05T05:17:17.177Z,100.00
2023-03-05T05:20:18.954Z,100.00
2023-03-05T05:23:22.435Z,100.00
2023-03-05T05:26:24.053Z,100.00
2023-03-05T05:29:26.101Z,100.00
2023-03-05T05:32:27.743Z,100.00
2023-03-05T05:35:29.773Z,100.00
2023-03-05T05:38:32.945Z,100.00
2023-03-05T05:41:34.783Z,100.00
2023-03-05T05:44:36.421Z,100.00
2023-03-05T05:47:37.965Z,100.00
2023-03-05T05:50:41.131Z,100.00
2023-03-05T05:53:44.290Z,100.00
2023-03-05T05:56:45.871Z,100.00
2023-03-05T05:59:47.427Z,100.00
2023-03-05T06:02:49.039Z,100.00
2023-03-05T06:05:52.413Z,100.00
2023-03-05T06:08:55.654Z,100.00
2023-03-05T06:11:57.358Z,100.00
2023-03-05T06:14:59.134Z,100.00
2023-03-05T06:18:01.094Z,100.00
2023-03-05T06:21:04.188Z,100.00
2023-03-05T06:24:07.457Z,100.00
2023-03-05T06:27:09.212Z,100.00
2023-03-05T06:30:11.954Z,100.00
2023-03-05T06:33:13.662Z,100.00
2023-03-05T06:36:17.026Z,100.00
2023-03-05T06:39:19.968Z,100.00
2023-03-05T06:42:22.028Z,100.00
2023-03-05T06:45:23.582Z,100.00
2023-03-05T06:48:25.374Z,100.00
2023-03-05T06:51:28.588Z,100.00
2023-03-05T06:54:31.769Z,100.00
2023-03-05T06:57:33.513Z,100.00
2023-03-05T07:00:35.117Z,100.00
2023-03-05T07:03:37.537Z,100.00
2023-03-05T07:06:39.968Z,100.00
2023-03-05T07:09:44.999Z,100.00
2023-03-05T07:12:46.452Z,100.00
2023-03-05T07:15:48.068Z,100.00
2023-03-05T07:18:49.966Z,100.00
2023-03-05T07:21:51.646Z,100.00
2023-03-05T07:24:54.549Z,100.00
2023-03-05T07:27:56.133Z,100.00
2023-03-05T07:30:58.319Z,100.00
2023-03-05T07:34:00.949Z,100.00
2023-03-05T07:37:02.540Z,100.00
2023-03-05T07:40:06.507Z,100.00
2023-03-05T07:43:08.770Z,100.00
2023-03-05T07:46:12.604Z,100.00
2023-03-05T07:49:14.374Z,100.00
2023-03-05T07:52:16.090Z,100.00
2023-03-05T07:55:19.066Z,100.00
2023-03-05T07:58:23.003Z,100.00
2023-03-05T08:01:25.060Z,100.00
2023-03-05T08:04:26.935Z,100.00
2023-03-05T08:07:37.363Z,100.00
2023-03-05T08:10:41.683Z,100.00
2023-03-05T08:13:44.272Z,100.00
2023-03-05T08:16:48.318Z,100.00
2023-03-05T08:19:50.044Z,100.00
2023-03-05T08:22:51.822Z,100.00
2023-03-05T08:25:55.061Z,100.00
2023-03-05T08:28:57.207Z,100.00
2023-03-05T08:31:58.974Z,100.00
2023-03-05T08:35:02.826Z,100.00
2023-03-05T08:38:04.728Z,100.00
2023-03-05T08:41:07.772Z,100.00
2023-03-05T08:44:09.433Z,100.00
2023-03-05T08:47:11.052Z,100.00
2023-03-05T08:50:14.546Z,100.00
2023-03-05T08:53:16.259Z,100.00
2023-03-05T08:56:19.367Z,100.00
2023-03-05T08:59:20.954Z,100.00
2023-03-05T09:02:23.131Z,100.00
2023-03-05T09:05:24.874Z,100.00
2023-03-05T09:08:27.559Z,100.00
2023-03-05T09:11:30.574Z,100.00
2023-03-05T09:14:32.216Z,100.00
2023-03-05T09:17:34.916Z,100.00
2023-03-05T09:20:37.213Z,100.00
2023-03-05T09:23:39.202Z,100.00
2023-03-05T09:26:42.413Z,100.00
2023-03-05T09:29:44.073Z,100.00
2023-03-05T09:32:45.742Z,100.00
2023-03-05T09:35:48.818Z,100.00
2023-03-05T09:38:50.873Z,100.00
2023-03-05T09:42:09.883Z,100.00
2023-03-05T09:45:17.399Z,100.00
2023-03-05T09:48:20.751Z,100.00
2023-03-05T09:51:24.446Z,100.00
2023-03-05T09:54:30.267Z,100.00
2023-03-05T09:57:39.128Z,100.00
2023-03-05T10:00:42.140Z,100.00
2023-03-05T10:03:48.825Z,100.00
2023-03-05T10:06:53.247Z,100.00
2023-03-05T10:09:56.684Z,100.00
2023-03-05T10:13:01.865Z,100.00
2023-03-05T10:16:07.194Z,100.00
2023-03-05T10:19:13.210Z,100.00
2023-03-05T10:22:17.970Z,100.00
2023-03-05T10:25:23.756Z,100.00
2023-03-05T10:28:33.440Z,100.00
2023-03-05T10:31:46.695Z,100.00
2023-03-05T10:35:07.680Z,100.00
2023-03-05T10:38:38.595Z,100.00
2023-03-05T10:41:45.223Z,100.00
2023-03-05T10:44:51.020Z,100.00
2023-03-05T10:47:54.457Z,100.00
2023-03-05T10:50:59.911Z,100.00
2023-03-05T10:54:05.909Z,100.00
2023-03-05T10:57:16.994Z,100.00
2023-03-05T11:00:21.537Z,100.00
2023-03-05T11:03:23.098Z,100.00
2023-03-05T11:06:29.769Z,100.00
2023-03-05T11:09:32.756Z,100.00
2023-03-05T11:12:35.019Z,100.00
2023-03-05T11:15:37.970Z,100.00
2023-03-05T11:18:39.537Z,100.00
2023-03-05T11:21:41.720Z,100.00
2023-03-05T11:24:43.779Z,100.00
2023-03-05T11:27:51.974Z,100.00
2023-03-05T11:30:57.819Z,100.00
2023-03-05T11:34:01.171Z,100.00
2023-03-05T11:37:06.130Z,100.00
2023-03-05T11:40:20.471Z,100.00
2023-03-05T11:43:23.276Z,100.00
2023-03-05T11:46:27.873Z,100.00
2023-03-05T11:49:32.014Z,100.00
2023-03-05T11:52:40.178Z,100.00
2023-03-05T11:55:44.382Z,100.00
2023-03-05T11:58:48.350Z,100.00
2023-03-05T12:01:53.527Z,100.00
2023-03-05T12:04:56.517Z,99.42
2023-03-05T12:07:59.556Z,100.00
2023-03-05T12:11:05.084Z,99.47
2023-03-05T12:14:15.358Z,98.88
2023-03-05T12:17:22.480Z,99.37
2023-03-05T12:20:28.010Z,100.00
2023-03-05T12:23:29.893Z,100.00
2023-03-05T12:26:59.530Z,98.39
2023-03-05T12:30:04.309Z,91.87
2023-03-05T12:33:28.995Z,91.38
2023-03-05T12:36:35.425Z,93.20
2023-03-05T12:39:49.608Z,94.89
2023-03-05T12:42:55.899Z,94.72
2023-03-05T12:46:16.385Z,94.98
2023-03-05T12:49:35.952Z,95.30
2023-03-05T12:52:46.163Z,96.42
2023-03-05T12:55:55.736Z,95.51
2023-03-05T12:58:58.993Z,95.05
2023-03-05T13:02:03.101Z,92.62
2023-03-05T13:05:07.931Z,92.16
2023-03-05T13:08:14.861Z,91.72
2023-03-05T13:11:20.493Z,92.38
2023-03-05T13:14:46.350Z,88.51
2023-03-05T13:17:52.160Z,89.60
2023-03-05T13:21:04.614Z,88.31
2023-03-05T13:24:15.179Z,85.57
2023-03-05T13:27:21.229Z,86.99
2023-03-05T13:30:23.575Z,86.13
2023-03-05T13:33:26.423Z,82.87
2023-03-05T13:36:28.179Z,85.45
2023-03-05T13:39:33.220Z,81.68
2023-03-05T13:42:36.716Z,84.66
2023-03-05T13:45:40.267Z,82.35
2023-03-05T13:48:42.317Z,83.58
2023-03-05T13:51:44.695Z,83.99
2023-03-05T13:54:48.594Z,82.58
2023-03-05T13:57:51.286Z,81.74
2023-03-05T14:01:02.342Z,80.57
2023-03-05T14:04:07.294Z,79.20
2023-03-05T14:07:24.618Z,82.03
2023-03-05T14:10:29.567Z,82.01
2023-03-05T14:13:32.175Z,84.03
2023-03-05T14:16:33.913Z,82.14
2023-03-05T14:19:37.902Z,82.32
2023-03-05T14:22:40.745Z,83.12
2023-03-05T14:25:43.778Z,82.27
2023-03-05T14:28:50.347Z,79.13
2023-03-05T14:31:53.502Z,79.20
2023-03-05T14:34:56.623Z,77.46
2023-03-05T14:37:59.454Z,78.14
2023-03-05T14:41:16.157Z,77.76
2023-03-05T14:44:19.684Z,77.10
2023-03-05T14:47:22.345Z,76.42
2023-03-05T14:50:25.326Z,76.57
2023-03-05T14:53:31.763Z,76.89
2023-03-05T14:56:33.802Z,76.57
2023-03-05T14:59:37.598Z,77.34
2023-03-05T15:02:39.756Z,77.20
2023-03-05T15:05:42.126Z,78.50
2023-03-05T15:08:44.094Z,78.54
2023-03-05T15:11:46.124Z,77.67
2023-03-05T15:14:49.539Z,77.22
2023-03-05T15:17:58.688Z,77.65
2023-03-05T15:21:00.303Z,77.66
2023-03-05T15:24:02.448Z,76.70
2023-03-05T15:27:05.852Z,77.81
2023-03-05T15:30:15.328Z,78.14
2023-03-05T15:33:17.557Z,78.36
2023-03-05T15:36:19.316Z,78.67
2023-03-05T15:39:21.537Z,77.90
2023-03-05T15:42:23.637Z,77.69
2023-03-05T15:45:27.445Z,78.71
2023-03-05T15:48:29.069Z,78.92
2023-03-05T15:51:30.879Z,78.49
2023-03-05T15:54:32.660Z,78.67
2023-03-05T15:57:35.550Z,79.29
2023-03-05T16:00:40.303Z,78.50
2023-03-05T16:03:41.979Z,79.06
2023-03-05T16:06:44.076Z,79.19
2023-03-05T16:09:48.082Z,80.03
2023-03-05T16:12:52.827Z,78.80
2023-03-05T16:15:56.615Z,79.60
2023-03-05T16:18:58.566Z,79.70
2023-03-05T16:22:00.212Z,79.95
2023-03-05T16:25:02.601Z,80.31
2023-03-05T16:28:04.836Z,81.42
2023-03-05T16:31:08.103Z,81.53
2023-03-05T16:34:09.897Z,82.46
2023-03-05T16:37:19.331Z,83.04
2023-03-05T16:40:21.142Z,83.23
2023-03-05T16:43:22.878Z,83.91
2023-03-05T16:46:27.064Z,84.84
2023-03-05T16:49:29.045Z,84.94
2023-03-05T16:52:31.003Z,85.83
2023-03-05T16:55:32.764Z,85.33
2023-03-05T16:58:35.216Z,85.50
2023-03-05T17:01:38.438Z,86.20
2023-03-05T17:04:40.084Z,85.73
2023-03-05T17:07:41.688Z,86.15
2023-03-05T17:10:43.426Z,87.25
2023-03-05T17:13:47.673Z,87.20
2023-03-05T17:16:52.018Z,86.44
2023-03-05T17:19:53.714Z,86.68
2023-03-05T17:22:55.723Z,86.58
2023-03-05T17:25:57.567Z,86.38
2023-03-05T17:28:59.291Z,86.51
2023-03-05T17:32:02.431Z,86.34
2023-03-05T17:35:05.620Z,86.47
2023-03-05T17:38:08.365Z,86.05
2023-03-05T17:41:10.522Z,85.93
2023-03-05T17:44:13.762Z,86.29
2023-03-05T17:47:17.395Z,86.29
2023-03-05T17:50:19.741Z,86.28
2023-03-05T17:53:22.051Z,86.58
2023-03-05T17:56:25.773Z,86.65
2023-03-05T17:59:28.627Z,86.61
2023-03-05T18:02:33.651Z,86.84
2023-03-05T18:05:35.701Z,86.88
2023-03-05T18:08:37.489Z,87.05
2023-03-05T18:11:39.482Z,86.48
2023-03-05T18:14:41.279Z,86.30
2023-03-05T18:17:44.662Z,86.18
2023-03-05T18:20:47.760Z,86.37
2023-03-05T18:23:50.083Z,86.33
2023-03-05T18:26:52.166Z,85.87
2023-03-05T18:29:54.362Z,85.49
2023-03-05T18:32:58.027Z,85.20
2023-03-05T18:35:59.876Z,85.29
2023-03-05T18:39:01.814Z,85.08
2023-03-05T18:42:03.461Z,85.21
2023-03-05T18:45:06.278Z,85.40
2023-03-05T18:48:10.082Z,85.44
2023-03-05T18:51:14.072Z,84.61
2023-03-05T18:54:15.788Z,84.43
2023-03-05T18:57:17.397Z,84.48
2023-03-05T19:00:20.017Z,84.58
2023-03-05T19:03:23.293Z,84.55
2023-03-05T19:06:24.991Z,84.37
2023-03-05T19:09:42.161Z,85.20
2023-03-05T19:12:55.742Z,84.45
2023-03-05T19:15:58.231Z,85.17
2023-03-05T19:19:13.808Z,84.83
2023-03-05T19:22:15.551Z,84.81
2023-03-05T19:25:18.291Z,85.00
2023-03-05T19:28:21.284Z,84.53
2023-03-05T19:31:23.322Z,85.19
2023-03-05T19:34:26.346Z,85.26
2023-03-05T19:37:28.106Z,85.28
2023-03-05T19:40:30.099Z,85.72
2023-03-05T19:43:31.788Z,85.97
2023-03-05T19:46:33.748Z,85.98
2023-03-05T19:49:37.212Z,86.41
2023-03-05T19:52:39.141Z,86.62
2023-03-05T19:55:40.960Z,86.93
2023-03-05T19:58:45.636Z,86.95
2023-03-05T20:01:48.201Z,87.77
2023-03-05T20:04:51.269Z,88.01
2023-03-05T20:07:53.175Z,88.37
2023-03-05T20:10:54.713Z,88.74
2023-03-05T20:13:56.530Z,88.90
2023-03-05T20:16:58.215Z,89.34
2023-03-05T20:20:02.386Z,89.65
2023-03-05T20:23:04.291Z,90.55
2023-03-05T20:26:06.883Z,90.99
2023-03-05T20:29:08.834Z,91.27
2023-03-05T20:32:10.708Z,91.61
2023-03-05T20:35:15.118Z,91.92
2023-03-05T20:38:25.192Z,92.72
2023-03-05T20:41:27.151Z,92.81
2023-03-05T20:44:29.128Z,92.66
2023-03-05T20:47:40.614Z,92.70
2023-03-05T20:50:44.174Z,92.15
2023-03-05T20:53:45.964Z,92.30
2023-03-05T20:56:48.015Z,92.08
2023-03-05T20:59:49.821Z,92.22
2023-03-05T21:02:54.646Z,93.09
2023-03-05T21:05:57.842Z,93.42
2023-03-05T21:08:59.995Z,93.80
2023-03-05T21:12:02.357Z,94.05
2023-03-05T21:15:05.081Z,94.35
2023-03-05T21:18:06.838Z,94.64
2023-03-05T21:21:10.238Z,94.92
2023-03-05T21:24:11.874Z,95.10
2023-03-05T21:27:13.479Z,95.50
2023-03-05T21:30:15.793Z,95.44
2023-03-05T21:33:19.215Z,95.02
2023-03-05T21:36:22.556Z,95.40
2023-03-05T21:39:24.819Z,95.43
2023-03-05T21:42:26.619Z,95.06
2023-03-05T21:45:29.307Z,95.62
2023-03-05T21:48:38.588Z,95.67
2023-03-05T21:51:53.254Z,95.79
2023-03-05T21:54:54.922Z,95.86
2023-03-05T21:57:56.722Z,96.17
2023-03-05T22:00:58.707Z,96.67
2023-03-05T22:04:00.860Z,97.32
2023-03-05T22:07:06.157Z,98.10
2023-03-05T22:10:10.697Z,98.61
2023-03-05T22:13:12.644Z,99.27
2023-03-05T22:16:21.080Z,100.00
2023-03-05T22:19:22.750Z,100.00
2023-03-05T22:22:26.914Z,100.00
2023-03-05T22:25:28.822Z,100.00
2023-03-05T22:28:30.758Z,100.00
2023-03-05T22:31:32.987Z,100.00
2023-03-05T22:34:34.754Z,100.00
2023-03-05T22:37:38.054Z,100.00
2023-03-05T22:40:42.315Z,100.00
2023-03-05T22:43:45.188Z,100.00
2023-03-05T22:46:47.017Z,100.00
2023-03-05T22:49:48.928Z,100.00
2023-03-05T22:52:52.266Z,100.00
2023-03-05T22:55:54.161Z,100.00
2023-03-05T22:58:56.383Z,100.00
2023-03-05T23:01:58.189Z,100.00
2023-03-05T23:05:01.526Z,100.00
2023-03-05T23:08:05.873Z,100.00
2023-03-05T23:11:08.089Z,100.00
2023-03-05T23:14:10.219Z,100.00
2023-03-05T23:17:12.400Z,100.00
2023-03-05T23:20:16.936Z,100.00
2023-03-05T23:23:20.253Z,100.00
2023-03-05T23:26:22.080Z,100.00
2023-03-05T23:29:25.808Z,100.00
2023-03-05T23:32:27.915Z,100.00
2023-03-05T23:35:30.463Z,100.00
2023-03-05T23:38:35.207Z,100.00
2023-03-05T23:41:36.905Z,100.00
2023-03-05T23:44:38.726Z,100.00
2023-03-05T23:47:40.964Z,100.00
2023-03-05T23:50:44.006Z,100.00
2023-03-05T23:53:48.384Z,100.00
2023-03-05T23:56:50.145Z,100.00
2023-03-05T23:59:51.845Z,100.00
